createdAt,value
2023-01-08T00:02:25.761Z,8.70
2023-01-08T00:04:52.377Z,8.70
2023-01-08T00:07:19.177Z,8.90
2023-01-08T00:09:47.708Z,8.80
2023-01-08T00:12:14.347Z,8.90
2023-01-08T00:14:40.949Z,8.90
2023-01-08T00:17:08.571Z,8.90
2023-01-08T00:19:35.221Z,8.80
2023-01-08T00:22:01.874Z,8.90
2023-01-08T00:24:28.483Z,8.90
2023-01-08T00:26:55.061Z,8.90
2023-01-08T00:29:21.701Z,8.90
2023-01-08T00:31:48.309Z,8.80
2023-01-08T00:34:14.939Z,8.80
2023-01-08T00:36:41.673Z,8.80
2023-01-08T00:39:08.314Z,8.80
2023-01-08T00:41:34.937Z,8.80
2023-01-08T00:44:01.564Z,8.80
2023-01-08T00:46:28.305Z,8.80
2023-01-08T00:48:54.887Z,8.80
2023-01-08T00:51:21.542Z,8.90
2023-01-08T00:53:48.222Z,8.90
2023-01-08T00:56:14.881Z,8.90
2023-01-08T00:58:41.511Z,8.90
2023-01-08T01:01:13.565Z,8.90
2023-01-08T01:03:40.822Z,8.90
2023-01-08T01:06:08.299Z,8.90
2023-01-08T01:08:35.515Z,8.90
2023-01-08T01:11:10.201Z,8.90
2023-01-08T01:13:36.993Z,8.90
2023-01-08T01:16:04.262Z,8.90
2023-01-08T01:18:31.652Z,8.90
2023-01-08T01:20:58.356Z,8.90
2023-01-08T01:23:25.009Z,8.90
2023-01-08T01:25:51.730Z,9.00
2023-01-08T01:28:18.375Z,8.90
2023-01-08T01:30:45.142Z,9.00
2023-01-08T01:33:11.836Z,8.90
2023-01-08T01:35:38.443Z,8.90
2023-01-08T01:38:05.071Z,8.90
2023-01-08T01:40:31.712Z,8.90
2023-01-08T01:42:58.368Z,8.90
2023-01-08T01:45:30.055Z,8.90
2023-01-08T01:48:17.135Z,8.90
2023-01-08T01:50:48.441Z,8.90
2023-01-08T01:53:18.144Z,8.90
2023-01-08T01:55:46.418Z,8.90
2023-01-08T01:58:39.372Z,8.90
2023-01-08T02:01:09.515Z,8.90
2023-01-08T02:03:38.407Z,8.90
2023-01-08T02:06:17.508Z,8.90
2023-01-08T02:08:57.215Z,8.90
2023-01-08T02:11:28.919Z,8.90
2023-01-08T02:14:16.202Z,8.90
2023-01-08T02:16:59.891Z,8.90
2023-01-08T02:19:46.199Z,8.90
2023-01-08T02:22:25.636Z,8.90
2023-01-08T02:25:03.165Z,8.90
2023-01-08T02:27:31.886Z,8.90
2023-01-08T02:29:59.155Z,8.90
2023-01-08T02:32:34.226Z,8.80
2023-01-08T02:35:00.927Z,8.80
2023-01-08T02:37:27.623Z,8.80
2023-01-08T02:40:10.963Z,8.80
2023-01-08T02:42:51.009Z,8.70
2023-01-08T02:45:36.364Z,8.70
2023-01-08T02:48:09.363Z,8.70
2023-01-08T02:50:49.027Z,8.70
2023-01-08T02:53:32.351Z,8.70
2023-01-08T02:56:15.580Z,8.70
2023-01-08T02:58:43.631Z,8.70
2023-01-08T03:01:13.002Z,8.70
2023-01-08T03:03:43.597Z,8.60
2023-01-08T03:06:15.582Z,8.60
2023-01-08T03:08:44.248Z,8.60
2023-01-08T03:11:12.477Z,8.60
2023-01-08T03:14:30.255Z,8.60
2023-01-08T03:17:14.552Z,8.60
2023-01-08T03:19:47.313Z,8.60
2023-01-08T03:22:16.518Z,8.60
2023-01-08T03:24:46.105Z,8.60
2023-01-08T03:27:17.598Z,8.60
2023-01-08T03:29:46.519Z,8.60
2023-01-08T03:32:16.644Z,8.60
2023-01-08T03:34:47.283Z,8.60
2023-01-08T03:37:16.148Z,8.60
2023-01-08T03:40:05.633Z,8.60
2023-01-08T03:42:32.788Z,8.60
2023-01-08T03:45:00.989Z,8.60
2023-01-08T03:47:30.643Z,8.50
2023-01-08T03:50:01.356Z,8.50
2023-01-08T03:52:31.659Z,8.50
2023-01-08T03:54:58.527Z,8.50
2023-01-08T03:57:25.467Z,8.40
2023-01-08T03:59:52.057Z,8.40
2023-01-08T04:02:18.986Z,8.30
2023-01-08T04:04:45.722Z,8.30
2023-01-08T04:07:12.755Z,8.30
2023-01-08T04:09:39.446Z,8.30
2023-01-08T04:12:06.383Z,8.30
2023-01-08T04:14:33.029Z,8.30
2023-01-08T04:16:59.759Z,8.30
2023-01-08T04:19:26.356Z,8.30
2023-01-08T04:21:53.480Z,8.30
2023-01-08T04:24:20.600Z,8.30
2023-01-08T04:26:47.338Z,8.30
2023-01-08T04:29:14.320Z,8.30
2023-01-08T04:31:41.421Z,8.30
2023-01-08T04:34:08.072Z,8.30
2023-01-08T04:36:34.677Z,8.30
2023-01-08T04:39:03.864Z,8.30
2023-01-08T04:41:30.626Z,8.30
2023-01-08T04:43:57.269Z,8.30
2023-01-08T04:46:23.956Z,8.30
2023-01-08T04:48:50.633Z,8.20
2023-01-08T04:51:17.220Z,8.20
2023-01-08T04:53:45.417Z,8.10
2023-01-08T04:56:12.135Z,8.20
2023-01-08T04:58:39.777Z,8.20
2023-01-08T05:01:19.045Z,8.10
2023-01-08T05:03:45.724Z,8.20
2023-01-08T05:06:12.334Z,8.10
2023-01-08T05:08:38.960Z,8.20
2023-01-08T05:11:05.639Z,8.10
2023-01-08T05:13:32.328Z,8.10
2023-01-08T05:16:00.317Z,8.10
2023-01-08T05:18:27.820Z,8.10
2023-01-08T05:20:54.471Z,8.10
2023-01-08T05:23:21.243Z,8.10
2023-01-08T05:25:47.882Z,8.10
2023-01-08T05:28:14.468Z,8.20
2023-01-08T05:30:41.186Z,8.10
2023-01-08T05:33:07.787Z,8.20
2023-01-08T05:35:34.374Z,8.20
2023-01-08T05:38:00.966Z,8.20
2023-01-08T05:40:27.605Z,8.10
2023-01-08T05:42:54.232Z,8.10
2023-01-08T05:45:20.900Z,8.10
2023-01-08T05:47:47.674Z,8.20
2023-01-08T05:50:14.341Z,8.20
2023-01-08T05:52:40.968Z,8.20
2023-01-08T05:55:07.922Z,8.20
2023-01-08T05:57:34.608Z,8.20
2023-01-08T06:00:01.224Z,8.20
2023-01-08T06:02:27.976Z,8.20
2023-01-08T06:04:54.629Z,8.20
2023-01-08T06:07:21.290Z,8.20
2023-01-08T06:09:47.925Z,8.20
2023-01-08T06:12:14.536Z,8.20
2023-01-08T06:14:41.157Z,8.20
2023-01-08T06:17:07.848Z,8.20
2023-01-08T06:19:34.456Z,8.20
2023-01-08T06:22:01.124Z,8.20
2023-01-08T06:24:27.764Z,8.20
2023-01-08T06:26:54.358Z,8.20
2023-01-08T06:29:21.003Z,8.20
2023-01-08T06:31:47.591Z,8.20
2023-01-08T06:34:14.271Z,8.20
2023-01-08T06:36:40.964Z,8.20
2023-01-08T06:39:08.294Z,8.20
2023-01-08T06:41:34.968Z,8.20
2023-01-08T06:44:01.803Z,8.20
2023-01-08T06:46:28.680Z,8.20
2023-01-08T06:48:55.322Z,8.20
2023-01-08T06:51:21.998Z,8.20
2023-01-08T06:53:48.948Z,8.10
2023-01-08T06:56:15.627Z,8.10
2023-01-08T06:58:42.239Z,8.10
2023-01-08T07:01:14.416Z,8.10
2023-01-08T07:03:41.394Z,8.10
2023-01-08T07:06:14.330Z,8.10
2023-01-08T07:08:41.012Z,8.10
2023-01-08T07:11:08.053Z,8.10
2023-01-08T07:13:34.780Z,8.10
2023-01-08T07:16:13.501Z,8.10
2023-01-08T07:18:40.213Z,8.10
2023-01-08T07:21:08.107Z,8.10
2023-01-08T07:23:35.518Z,8.00
2023-01-08T07:26:03.258Z,8.00
2023-01-08T07:28:30.480Z,8.00
2023-01-08T07:30:57.175Z,8.00
2023-01-08T07:33:23.848Z,8.00
2023-01-08T07:35:57.090Z,8.00
2023-01-08T07:38:23.974Z,8.00
2023-01-08T07:40:50.683Z,8.00
2023-01-08T07:43:17.512Z,8.00
2023-01-08T07:45:44.217Z,7.90
2023-01-08T07:48:15.544Z,7.90
2023-01-08T07:50:43.748Z,7.90
2023-01-08T07:53:12.038Z,7.90
2023-01-08T07:55:38.821Z,7.90
2023-01-08T07:58:13.305Z,7.90
2023-01-08T08:00:40.351Z,7.90
2023-01-08T08:03:11.297Z,7.90
2023-01-08T08:05:38.331Z,7.90
2023-01-08T08:08:12.276Z,7.90
2023-01-08T08:10:40.681Z,7.90
2023-01-08T08:13:07.656Z,7.90
2023-01-08T08:15:36.261Z,8.00
2023-01-08T08:18:03.683Z,8.00
2023-01-08T08:20:30.372Z,8.00
2023-01-08T08:23:15.090Z,8.00
2023-01-08T08:25:42.531Z,8.00
2023-01-08T08:28:11.679Z,8.00
2023-01-08T08:30:42.163Z,8.00
2023-01-08T08:33:10.076Z,8.00
2023-01-08T08:35:37.531Z,8.10
2023-01-08T08:38:04.907Z,8.10
2023-01-08T08:40:32.032Z,8.20
2023-01-08T08:43:00.524Z,8.20
2023-01-08T08:45:27.588Z,8.20
2023-01-08T08:47:54.538Z,8.20
2023-01-08T08:50:22.058Z,8.30
2023-01-08T08:52:49.884Z,8.30
2023-01-08T08:55:17.409Z,8.30
2023-01-08T08:57:46.166Z,8.30
2023-01-08T09:00:13.666Z,8.30
2023-01-08T09:02:40.530Z,8.30
2023-01-08T09:05:08.338Z,8.30
2023-01-08T09:07:35.027Z,8.30
2023-01-08T09:10:01.807Z,8.30
2023-01-08T09:12:28.446Z,8.30
2023-01-08T09:14:56.980Z,8.40
2023-01-08T09:17:25.704Z,8.40
2023-01-08T09:19:52.580Z,8.30
2023-01-08T09:22:19.580Z,8.30
2023-01-08T09:24:46.511Z,8.40
2023-01-08T09:27:13.776Z,8.40
2023-01-08T09:29:40.512Z,8.30
2023-01-08T09:32:07.816Z,8.40
2023-01-08T09:34:36.216Z,8.40
2023-01-08T09:37:03.321Z,8.40
2023-01-08T09:39:29.933Z,8.30
2023-01-08T09:41:58.180Z,8.30
2023-01-08T09:44:30.105Z,8.30
2023-01-08T09:46:57.372Z,8.30
2023-01-08T09:49:41.663Z,8.40
2023-01-08T09:52:12.003Z,8.40
2023-01-08T09:54:39.779Z,8.30
2023-01-08T09:57:06.807Z,8.40
2023-01-08T09:59:33.412Z,8.40
2023-01-08T10:02:00.378Z,8.40
2023-01-08T10:04:30.276Z,8.40
2023-01-08T10:07:13.393Z,8.40
2023-01-08T10:09:40.728Z,8.40
2023-01-08T10:12:10.198Z,8.40
2023-01-08T10:14:40.120Z,8.40
2023-01-08T10:17:15.891Z,8.40
2023-01-08T10:19:42.714Z,8.50
2023-01-08T10:22:16.508Z,8.40
2023-01-08T10:24:43.379Z,8.50
2023-01-08T10:27:16.830Z,8.40
2023-01-08T10:29:43.869Z,8.40
2023-01-08T10:32:29.977Z,8.40
2023-01-08T10:34:58.520Z,8.40
2023-01-08T10:37:43.518Z,8.40
2023-01-08T10:40:22.703Z,8.40
2023-01-08T10:42:51.248Z,8.40
2023-01-08T10:45:27.929Z,8.40
2023-01-08T10:48:00.729Z,8.40
2023-01-08T10:50:33.044Z,8.30
2023-01-08T10:53:05.451Z,8.40
2023-01-08T10:55:37.584Z,8.40
2023-01-08T10:58:09.093Z,8.40
2023-01-08T11:00:37.255Z,8.30
2023-01-08T11:03:10.045Z,8.30
2023-01-08T11:05:39.268Z,8.40
2023-01-08T11:08:14.745Z,8.30
2023-01-08T11:10:41.613Z,8.40
2023-01-08T11:13:17.053Z,8.40
2023-01-08T11:15:44.158Z,8.40
2023-01-08T11:18:20.292Z,8.40
2023-01-08T11:20:49.106Z,8.40
2023-01-08T11:23:26.537Z,8.40
2023-01-08T11:26:08.301Z,8.40
2023-01-08T11:29:07.632Z,8.40
2023-01-08T11:31:40.107Z,8.40
2023-01-08T11:34:17.811Z,8.40
2023-01-08T11:36:52.258Z,8.40
2023-01-08T11:39:19.387Z,8.50
2023-01-08T11:41:48.914Z,8.50
2023-01-08T11:44:39.520Z,8.50
2023-01-08T11:47:30.952Z,8.50
2023-01-08T11:50:21.816Z,8.50
2023-01-08T11:53:23.424Z,8.50
2023-01-08T11:56:07.929Z,8.60
2023-01-08T11:59:22.282Z,8.70
2023-01-08T12:01:49.962Z,8.80
2023-01-08T12:04:42.079Z,8.80
2023-01-08T12:07:49.803Z,8.80
2023-01-08T12:10:22.206Z,8.80
2023-01-08T12:13:14.472Z,8.80
2023-01-08T12:16:21.042Z,8.80
2023-01-08T12:19:03.706Z,8.90
2023-01-08T12:21:38.116Z,8.90
2023-01-08T12:24:23.627Z,8.90
2023-01-08T12:27:15.621Z,8.90
2023-01-08T12:29:53.742Z,8.90
2023-01-08T12:32:55.712Z,8.80
2023-01-08T12:35:31.022Z,8.80
2023-01-08T12:38:22.247Z,8.80
2023-01-08T12:41:03.863Z,8.80
2023-01-08T12:43:38.946Z,8.70
2023-01-08T12:46:06.505Z,8.80
2023-01-08T12:48:37.978Z,8.70
2023-01-08T12:51:43.586Z,8.70
2023-01-08T12:54:32.235Z,8.80
2023-01-08T12:57:07.720Z,8.80
2023-01-08T12:59:37.336Z,8.70
2023-01-08T13:02:33.234Z,8.70
2023-01-08T13:05:28.374Z,8.70
2023-01-08T13:08:05.288Z,8.70
2023-01-08T13:10:32.027Z,8.80
2023-01-08T13:13:01.804Z,8.80
2023-01-08T13:15:30.742Z,8.80
2023-01-08T13:18:02.709Z,8.90
2023-01-08T13:20:31.678Z,8.90
2023-01-08T13:23:01.071Z,8.80
2023-01-08T13:25:38.855Z,8.90
2023-01-08T13:28:42.093Z,8.90
2023-01-08T13:31:27.061Z,8.90
2023-01-08T13:33:58.575Z,8.90
2023-01-08T13:36:31.945Z,8.90
2023-01-08T13:39:11.565Z,8.90
2023-01-08T13:41:46.059Z,8.90
2023-01-08T13:44:35.679Z,8.90
2023-01-08T13:47:07.251Z,8.80
2023-01-08T13:49:46.868Z,8.90
2023-01-08T13:52:42.721Z,8.90
2023-01-08T13:55:16.806Z,8.80
2023-01-08T13:57:50.814Z,8.80
2023-01-08T14:00:38.112Z,8.80
2023-01-08T14:03:04.796Z,8.80
2023-01-08T14:05:36.825Z,8.80
2023-01-08T14:08:03.583Z,8.80
2023-01-08T14:10:30.704Z,8.70
2023-01-08T14:13:09.738Z,8.70
2023-01-08T14:15:38.959Z,8.70
2023-01-08T14:18:06.261Z,8.70
2023-01-08T14:20:35.631Z,8.70
2023-01-08T14:23:08.453Z,8.60
2023-01-08T14:25:35.139Z,8.60
2023-01-08T14:28:05.156Z,8.60
2023-01-08T14:30:32.830Z,8.50
2023-01-08T14:33:00.650Z,8.50
2023-01-08T14:35:33.437Z,8.40
2023-01-08T14:38:01.939Z,8.40
2023-01-08T14:40:31.767Z,8.40
2023-01-08T14:43:02.199Z,8.40
2023-01-08T14:45:34.663Z,8.40
2023-01-08T14:48:08.291Z,8.40
2023-01-08T14:50:37.963Z,8.40
2023-01-08T14:53:26.018Z,8.40
2023-01-08T14:55:55.004Z,8.40
2023-01-08T14:58:27.622Z,8.40
2023-01-08T15:00:57.999Z,8.30
2023-01-08T15:03:37.888Z,8.30
2023-01-08T15:06:05.607Z,8.20
2023-01-08T15:08:41.209Z,8.20
2023-01-08T15:11:24.382Z,8.20
2023-01-08T15:13:53.054Z,8.10
2023-01-08T15:16:32.333Z,8.10
2023-01-08T15:19:02.048Z,8.00
2023-01-08T15:21:28.723Z,8.00
2023-01-08T15:23:57.602Z,8.00
2023-01-08T15:29:49.774Z,8.00
2023-01-08T15:32:16.361Z,8.00
2023-01-08T15:34:44.545Z,8.00
2023-01-08T15:37:11.826Z,8.00
2023-01-08T15:39:38.598Z,8.00
2023-01-08T15:42:43.222Z,8.00
2023-01-08T15:45:15.231Z,8.00
2023-01-08T15:47:41.910Z,8.00
2023-01-08T15:50:10.228Z,8.00
2023-01-08T15:52:39.800Z,8.10
2023-01-08T15:55:07.392Z,8.00
2023-01-08T15:57:34.040Z,8.10
2023-01-08T16:00:00.719Z,8.10
2023-01-08T16:02:27.462Z,8.10
2023-01-08T16:04:55.568Z,8.10
2023-01-08T16:07:22.697Z,8.10
2023-01-08T16:09:49.388Z,8.20
2023-01-08T16:12:16.007Z,8.10
2023-01-08T16:14:42.685Z,8.20
2023-01-08T16:17:10.005Z,8.10
2023-01-08T16:19:36.730Z,8.10
2023-01-08T16:22:04.545Z,8.20
2023-01-08T16:24:31.606Z,8.20
2023-01-08T16:26:58.310Z,8.20
2023-01-08T16:29:25.045Z,8.20
2023-01-08T16:31:51.731Z,8.20
2023-01-08T16:34:18.435Z,8.30
2023-01-08T16:36:45.088Z,8.20
2023-01-08T16:39:11.826Z,8.20
2023-01-08T16:41:38.551Z,8.20
2023-01-08T16:44:05.529Z,8.20
2023-01-08T16:46:32.335Z,8.10
2023-01-08T16:48:59.015Z,8.10
2023-01-08T16:51:27.816Z,8.20
2023-01-08T16:53:54.614Z,8.20
2023-01-08T16:56:21.294Z,8.10
2023-01-08T16:58:51.006Z,8.20
2023-01-08T17:01:18.014Z,8.20
2023-01-08T17:03:44.993Z,8.20
2023-01-08T17:06:13.303Z,8.20
2023-01-08T17:08:41.276Z,8.10
2023-01-08T17:11:08.828Z,8.10
2023-01-08T17:13:35.457Z,8.20
2023-01-08T17:16:06.649Z,8.20
2023-01-08T17:18:33.315Z,8.10
2023-01-08T17:21:00.000Z,8.10
2023-01-08T17:23:29.421Z,8.10
2023-01-08T17:25:57.771Z,8.10
2023-01-08T17:28:25.193Z,8.10
2023-01-08T17:31:00.910Z,8.10
2023-01-08T17:33:27.501Z,8.10
2023-01-08T17:35:54.108Z,8.10
2023-01-08T17:38:20.742Z,8.10
2023-01-08T17:40:47.340Z,8.10
2023-01-08T17:43:13.953Z,8.10
2023-01-08T17:45:40.755Z,8.10
2023-01-08T17:48:07.415Z,8.10
2023-01-08T17:50:34.349Z,8.10
2023-01-08T17:53:00.959Z,8.00
2023-01-08T17:55:27.853Z,8.00
2023-01-08T17:57:54.538Z,8.00
2023-01-08T18:00:21.556Z,7.90
2023-01-08T18:02:48.229Z,7.80
2023-01-08T18:05:14.909Z,7.80
2023-01-08T18:07:41.535Z,7.90
2023-01-08T18:10:08.924Z,7.90
2023-01-08T18:12:35.574Z,8.00
2023-01-08T18:15:02.289Z,8.00
2023-01-08T18:17:31.186Z,8.00
2023-01-08T18:19:57.864Z,7.90
2023-01-08T18:22:24.558Z,7.90
2023-01-08T18:24:51.434Z,7.90
2023-01-08T18:27:18.082Z,7.90
2023-01-08T18:29:44.740Z,7.90
2023-01-08T18:32:11.409Z,7.90
2023-01-08T18:34:38.896Z,7.90
2023-01-08T18:37:05.597Z,7.90
2023-01-08T18:39:32.336Z,7.90
2023-01-08T18:42:17.548Z,7.90
2023-01-08T18:44:44.212Z,7.80
2023-01-08T18:47:12.505Z,7.90
2023-01-08T18:49:39.160Z,7.90
2023-01-08T18:52:05.979Z,7.90
2023-01-08T18:54:35.196Z,7.90
2023-01-08T18:57:02.155Z,7.90
2023-01-08T18:59:28.784Z,7.90
2023-01-08T19:01:55.670Z,7.90
2023-01-08T19:04:22.553Z,7.90
2023-01-08T19:06:49.343Z,7.80
2023-01-08T19:09:16.794Z,7.80
2023-01-08T19:11:43.808Z,7.90
2023-01-08T19:14:12.678Z,7.80
2023-01-08T19:16:39.848Z,7.80
2023-01-08T19:19:06.988Z,7.80
2023-01-08T19:21:33.633Z,7.70
2023-01-08T19:24:00.261Z,7.70
2023-01-08T19:26:26.904Z,7.60
2023-01-08T19:28:53.531Z,7.60
2023-01-08T19:31:20.268Z,7.60
2023-01-08T19:33:46.873Z,7.60
2023-01-08T19:36:16.084Z,7.60
2023-01-08T19:38:43.841Z,7.60
2023-01-08T19:41:29.501Z,7.60
2023-01-08T19:43:56.808Z,7.60
2023-01-08T19:46:23.962Z,7.60
2023-01-08T19:48:50.714Z,7.50
2023-01-08T19:51:17.373Z,7.60
2023-01-08T19:53:44.080Z,7.60
2023-01-08T19:56:13.548Z,7.50
2023-01-08T19:58:40.397Z,7.50
2023-01-08T20:01:15.581Z,7.60
2023-01-08T20:03:42.766Z,7.60
2023-01-08T20:06:17.357Z,7.60
2023-01-08T20:08:46.209Z,7.70
2023-01-08T20:11:15.654Z,7.70
2023-01-08T20:13:42.541Z,7.70
2023-01-08T20:16:13.487Z,7.70
2023-01-08T20:18:40.244Z,7.70
2023-01-08T20:21:11.398Z,7.70
2023-01-08T20:23:38.416Z,7.60
2023-01-08T20:26:11.187Z,7.70
2023-01-08T20:28:39.264Z,7.60
2023-01-08T20:31:06.925Z,7.60
2023-01-08T20:33:35.327Z,7.70
2023-01-08T20:36:07.011Z,7.70
2023-01-08T20:38:33.670Z,7.70
2023-01-08T20:41:00.307Z,7.70
2023-01-08T20:43:27.138Z,7.70
2023-01-08T20:45:53.904Z,7.60
2023-01-08T20:48:20.553Z,7.70
2023-01-08T20:50:57.619Z,7.70
2023-01-08T20:53:24.463Z,7.70
2023-01-08T20:55:51.224Z,7.80
2023-01-08T20:58:18.282Z,7.80
2023-01-08T21:00:45.080Z,7.80
2023-01-08T21:03:12.527Z,7.80
2023-01-08T21:05:39.751Z,7.80
2023-01-08T21:08:07.592Z,7.80
2023-01-08T21:10:35.048Z,7.80
2023-01-08T21:13:01.992Z,7.80
2023-01-08T21:15:28.690Z,7.80
2023-01-08T21:17:55.305Z,7.80
2023-01-08T21:20:22.159Z,7.80
2023-01-08T21:22:48.840Z,7.70
2023-01-08T21:25:15.533Z,7.70
2023-01-08T21:27:42.145Z,7.80
2023-01-08T21:30:09.517Z,7.70
2023-01-08T21:32:37.128Z,7.70
2023-01-08T21:35:04.012Z,7.70
2023-01-08T21:37:31.615Z,7.70
2023-01-08T21:39:58.245Z,7.60
2023-01-08T21:42:43.358Z,7.70
2023-01-08T21:45:24.959Z,7.60
2023-01-08T21:47:53.023Z,7.60
2023-01-08T21:50:20.221Z,7.50
2023-01-08T21:53:05.380Z,7.50
2023-01-08T21:55:33.505Z,7.50
2023-01-08T21:58:00.348Z,7.40
2023-01-08T22:00:28.334Z,7.40
2023-01-08T22:02:55.124Z,7.40
2023-01-08T22:05:21.813Z,7.40
2023-01-08T22:07:48.417Z,7.40
2023-01-08T22:10:15.088Z,7.40
2023-01-08T22:12:42.046Z,7.40
2023-01-08T22:15:09.971Z,7.40
2023-01-08T22:17:36.969Z,7.40
2023-01-08T22:20:06.700Z,7.40
2023-01-08T22:22:33.435Z,7.40
2023-01-08T22:25:00.114Z,7.40
2023-01-08T22:27:26.721Z,7.40
2023-01-08T22:29:54.433Z,7.40
2023-01-08T22:32:21.121Z,7.40
2023-01-08T22:34:47.848Z,7.30
2023-01-08T22:37:14.499Z,7.30
2023-01-08T22:39:41.135Z,7.30
2023-01-08T22:42:07.859Z,7.30
2023-01-08T22:44:34.570Z,7.30
2023-01-08T22:47:02.561Z,7.30
2023-01-08T22:49:29.243Z,7.30
2023-01-08T22:51:57.058Z,7.30
2023-01-08T22:54:23.706Z,7.30
2023-01-08T22:56:50.306Z,7.30
2023-01-08T22:59:17.158Z,7.40
2023-01-08T23:01:43.853Z,7.40
2023-01-08T23:04:10.562Z,7.40
2023-01-08T23:06:37.263Z,7.50
2023-01-08T23:09:04.485Z,7.50
2023-01-08T23:11:33.221Z,7.50
2023-01-08T23:14:00.757Z,7.60
2023-01-08T23:16:27.504Z,7.60
2023-01-08T23:18:55.590Z,7.60
2023-01-08T23:21:23.860Z,7.60
2023-01-08T23:23:53.816Z,7.70
2023-01-08T23:26:26.789Z,7.60
2023-01-08T23:28:54.968Z,7.60
2023-01-08T23:31:25.276Z,7.60
2023-01-08T23:33:52.409Z,7.60
2023-01-08T23:36:21.130Z,7.60
2023-01-08T23:38:50.071Z,7.60
2023-01-08T23:41:17.491Z,7.60
2023-01-08T23:43:45.801Z,7.60
2023-01-08T23:46:13.514Z,7.60
2023-01-08T23:48:40.581Z,7.50
2023-01-08T23:51:07.566Z,7.50
2023-01-08T23:53:34.254Z,7.50
2023-01-08T23:56:00.949Z,7.40
2023-01-08T23:58:27.714Z,7.40
